Monte Alegre do Sul, Brazil
Current Conditions -  °F | °C
As of 9:00 AM on Friday 19 Dec 2014 (Local Time) from SBKP Reporting Station
Few Clouds Few Clouds  
Wind Chill: 75°   Ceiling: Unl
Heat Index: 75°   Visibility: 6mi
Dew Point: 66°   Wind: 10mph
Humidity: 73%   Direction: 20°NNE
Pressure: 29.91"   Gusts: NA
Location:  22.68°S, 46.68°W
Report Text: SBKP 191100Z 02009KT 9999 FEW020 24/19 Q1013
Loading
Personal Weather Stations






























Interactive Weather Map New forecast layout! Learn more

10-Day Weather Forecast

Advertisements
Track Severe Weather on mobile